Time;durP1;ratioP1;P1;durP2;ratioP2;P2;SDS_P1;SDS_P2;PMS_P1;PMS_P2;Temp;Humidity;BMP_temperature;BMP_pressure;BME280_temperature;BME280_humidity;BME280_pressure;Samples;Min_cycle;Max_cycle;Signal;HPM_P1;HPM_P2
2021/12/14 00:01:03;;;;;;;6.22;4.35;;;8.70;95.10;;;;;;2082892;28;20025;-92
2021/12/14 00:02:03;;;;;;;5.95;4.07;;;8.80;95.10;;;;;;2085160;28;20083;-91
2021/12/14 00:03:05;;;;;;;6.28;4.25;;;8.70;95.10;;;;;;2079810;28;20474;-92
2021/12/14 00:04:11;;;;;;;5.97;4.20;;;8.70;95.10;;;;;;2073745;28;20121;-93
2021/12/14 00:05:13;;;;;;;6.13;4.13;;;8.70;95.10;;;;;;2071733;28;20564;-92
2021/12/14 00:06:16;;;;;;;6.07;4.35;;;8.80;95.10;;;;;;2070586;28;20101;-91
2021/12/14 00:07:17;;;;;;;6.50;4.40;;;8.70;95.10;;;;;;2082011;28;20053;-92
2021/12/14 00:08:19;;;;;;;5.68;4.15;;;8.70;95.10;;;;;;2096537;28;20423;-92
2021/12/14 00:09:27;;;;;;;6.88;4.10;;;8.70;95.10;;;;;;2074461;28;20030;-92
2021/12/14 00:12:57;;;;;;;5.97;3.95;;;8.80;95.20;;;;;;2089959;28;20460;-92
2021/12/14 00:15:23;;;;;;;7.13;4.30;;;8.70;95.10;;;;;;2065467;28;20034;-92
2021/12/14 00:16:24;;;;;;;6.85;4.18;;;8.80;95.20;;;;;;2080673;28;20072;-92
2021/12/14 00:17:30;;;;;;;7.20;4.30;;;8.80;95.20;;;;;;2086980;28;20045;-92
2021/12/14 00:18:32;;;;;;;5.95;4.03;;;8.80;95.20;;;;;;2090154;28;20045;-91
2021/12/14 00:19:34;;;;;;;6.18;3.92;;;8.80;95.20;;;;;;2089859;28;20609;-92
2021/12/14 00:20:39;;;;;;;5.78;4.28;;;8.80;95.20;;;;;;2072825;28;20030;-92
2021/12/14 00:21:43;;;;;;;5.93;3.92;;;8.80;95.20;;;;;;2074334;28;20030;-92
2021/12/14 00:24:07;;;;;;;6.40;4.50;;;8.80;95.20;;;;;;2083513;28;20101;-91
2021/12/14 00:25:08;;;;;;;6.80;4.65;;;8.80;95.20;;;;;;2074327;28;20026;-92
2021/12/14 00:26:09;;;;;;;7.00;4.43;;;8.80;95.20;;;;;;2065018;28;20058;-92
2021/12/14 00:27:13;;;;;;;6.00;3.92;;;8.80;95.20;;;;;;2057190;28;20027;-92
2021/12/14 00:28:24;;;;;;;6.45;4.32;;;8.80;95.20;;;;;;2066639;28;20145;-91
2021/12/14 00:29:30;;;;;;;7.20;4.68;;;8.80;95.20;;;;;;2074372;28;20026;-93
2021/12/14 00:30:33;;;;;;;7.22;4.55;;;8.80;95.20;;;;;;2082075;28;20045;-92
2021/12/14 00:31:36;;;;;;;6.25;4.53;;;8.80;95.20;;;;;;2073068;28;20077;-91
2021/12/14 00:32:38;;;;;;;6.82;4.65;;;8.80;95.20;;;;;;2065078;28;20022;-92
2021/12/14 00:33:40;;;;;;;7.28;4.90;;;8.80;95.20;;;;;;2069976;28;20032;-92
2021/12/14 00:34:43;;;;;;;6.38;4.38;;;8.80;95.20;;;;;;2073150;28;20121;-92
2021/12/14 00:35:44;;;;;;;7.43;5.00;;;8.80;95.20;;;;;;2071662;28;20026;-92
2021/12/14 00:36:45;;;;;;;7.30;4.70;;;8.80;95.20;;;;;;2065469;28;20026;-92
2021/12/14 00:37:50;;;;;;;6.78;4.40;;;8.80;95.20;;;;;;2073162;28;20085;-92
2021/12/14 00:38:56;;;;;;;6.35;4.57;;;8.80;95.20;;;;;;2076858;28;20018;-92
2021/12/14 00:40:00;;;;;;;6.60;4.22;;;8.80;95.20;;;;;;2083668;28;20022;-91
2021/12/14 00:41:22;;;;;;;6.47;4.75;;;8.80;95.20;;;;;;2077161;28;20022;-92
2021/12/14 00:42:23;;;;;;;6.28;4.60;;;8.80;95.20;;;;;;2087972;28;20017;-92
2021/12/14 00:43:24;;;;;;;6.70;4.43;;;8.80;95.20;;;;;;2090872;28;20024;-91
2021/12/14 00:44:25;;;;;;;5.97;4.30;;;8.80;95.20;;;;;;2090984;28;20080;-81
2021/12/14 00:45:29;;;;;;;6.63;4.78;;;8.80;95.20;;;;;;2090351;28;20026;-91
2021/12/14 00:46:30;;;;;;;6.75;4.90;;;8.80;95.20;;;;;;2091158;28;20049;-85
2021/12/14 00:47:30;;;;;;;6.45;4.55;;;8.80;95.20;;;;;;2101270;28;20021;-87
2021/12/14 00:48:32;;;;;;;6.40;4.72;;;8.80;95.20;;;;;;2092692;28;20065;-79
2021/12/14 00:49:33;;;;;;;6.68;4.78;;;8.80;95.30;;;;;;2084847;28;20022;-85
2021/12/14 00:50:36;;;;;;;6.35;4.63;;;8.90;95.30;;;;;;2084587;28;20014;-82
2021/12/14 00:51:37;;;;;;;5.85;4.40;;;8.80;95.30;;;;;;2086283;28;20038;-92
2021/12/14 00:52:41;;;;;;;6.07;4.65;;;8.80;95.30;;;;;;2074532;28;20030;-92
2021/12/14 00:53:42;;;;;;;5.97;4.57;;;8.80;95.30;;;;;;2066693;28;20381;-91
2021/12/14 00:54:42;;;;;;;7.70;4.88;;;8.80;95.30;;;;;;2074513;28;20086;-91
2021/12/14 00:55:46;;;;;;;6.95;4.88;;;8.80;95.30;;;;;;2086797;28;20017;-92
2021/12/14 00:56:48;;;;;;;6.75;4.47;;;8.80;95.30;;;;;;2080928;28;20400;-92
2021/12/14 00:57:49;;;;;;;6.85;5.00;;;8.80;95.30;;;;;;2074569;28;20041;-91
2021/12/14 00:58:49;;;;;;;7.10;5.20;;;8.80;95.30;;;;;;2082958;28;20594;-92
2021/12/14 00:59:50;;;;;;;7.05;4.93;;;8.80;95.30;;;;;;2091594;28;20358;-92
2021/12/14 01:01:09;;;;;;;6.88;4.68;;;8.80;95.30;;;;;;2091291;28;20540;-92
2021/12/14 01:02:18;;;;;;;7.18;5.10;;;8.80;95.30;;;;;;2091546;28;20025;-91
2021/12/14 01:03:20;;;;;;;6.43;4.35;;;8.80;95.30;;;;;;2090979;28;20060;-91
2021/12/14 01:04:30;;;;;;;6.65;4.68;;;8.80;95.30;;;;;;2075687;28;20029;-92
2021/12/14 01:05:35;;;;;;;5.72;4.20;;;8.80;95.30;;;;;;2068320;28;20511;-92
2021/12/14 01:06:44;;;;;;;6.22;4.53;;;8.80;95.30;;;;;;2081533;28;20030;-92
2021/12/14 01:07:45;;;;;;;9.18;5.32;;;8.80;95.30;;;;;;2075390;28;20030;-93
2021/12/14 01:08:48;;;;;;;6.53;4.63;;;8.80;95.30;;;;;;2081868;28;20025;-92
2021/12/14 01:09:51;;;;;;;7.43;4.93;;;8.80;95.30;;;;;;2085749;28;20471;-92
2021/12/14 01:11:05;;;;;;;6.93;4.90;;;8.80;95.30;;;;;;2078716;28;20108;-92
2021/12/14 01:12:15;;;;;;;6.63;4.72;;;8.80;95.30;;;;;;2069178;28;20093;-91
2021/12/14 01:13:19;;;;;;;7.53;5.32;;;8.80;95.30;;;;;;2077823;28;20081;-92
2021/12/14 01:14:27;;;;;;;5.90;4.60;;;8.80;95.30;;;;;;2090102;28;20025;-92
2021/12/14 01:17:09;;;;;;;6.65;4.47;;;8.80;95.30;;;;;;2086175;28;20140;-92
2021/12/14 01:18:28;;;;;;;5.90;4.53;;;8.80;95.30;;;;;;2084456;28;20444;-92
2021/12/14 01:19:29;;;;;;;6.40;4.95;;;8.80;95.30;;;;;;2072355;28;20057;-92
2021/12/14 01:20:38;;;;;;;6.15;4.57;;;8.80;95.30;;;;;;2063685;28;20054;-92
2021/12/14 01:21:58;;;;;;;6.80;5.10;;;8.80;95.30;;;;;;2075000;28;20101;-92
2021/12/14 01:23:02;;;;;;;6.40;4.40;;;8.80;95.40;;;;;;2073996;28;20041;-92
2021/12/14 01:24:24;;;;;;;6.45;4.75;;;8.80;95.40;;;;;;2066716;28;20053;-92
2021/12/14 01:25:31;;;;;;;7.10;4.93;;;8.70;95.40;;;;;;2073526;28;20036;-91
2021/12/14 01:26:34;;;;;;;6.30;4.72;;;8.80;95.40;;;;;;2082257;28;20032;-91
2021/12/14 01:27:43;;;;;;;7.15;5.25;;;8.80;95.40;;;;;;2074669;28;20120;-92
2021/12/14 01:28:45;;;;;;;7.28;5.10;;;8.80;95.40;;;;;;2083698;28;20057;-92
2021/12/14 01:29:48;;;;;;;7.63;5.40;;;8.70;95.30;;;;;;2091154;28;20143;-92
2021/12/14 01:31:13;;;;;;;7.22;5.20;;;8.70;95.30;;;;;;2081488;28;20033;-92
2021/12/14 01:32:14;;;;;;;6.47;4.68;;;8.70;95.40;;;;;;2074183;28;20064;-93
2021/12/14 01:33:16;;;;;;;6.63;4.80;;;8.70;95.40;;;;;;2068912;28;20030;-92
2021/12/14 01:34:22;;;;;;;6.75;5.22;;;8.70;95.40;;;;;;2082496;28;20120;-93
2021/12/14 01:35:28;;;;;;;7.18;5.18;;;8.70;95.40;;;;;;2082008;28;20408;-92
2021/12/14 01:36:43;;;;;;;7.75;5.10;;;8.70;95.40;;;;;;2079779;28;20041;-91
2021/12/14 01:37:59;;;;;;;7.18;5.03;;;8.70;95.40;;;;;;2074274;28;20033;-93
2021/12/14 01:40:02;;;;;;;7.80;5.30;;;8.70;95.40;;;;;;2083043;28;20028;-92
2021/12/14 01:40:54;;;;;;;7.15;5.18;;;8.70;95.40;;;;;;2069692;28;20049;-92
2021/12/14 01:41:57;;;;;;;7.65;5.20;;;8.70;95.40;;;;;;2083165;28;20483;-92
2021/12/14 01:42:58;;;;;;;7.32;5.30;;;8.70;95.40;;;;;;2083185;28;20029;-92
2021/12/14 01:43:59;;;;;;;7.72;5.50;;;8.70;95.40;;;;;;2074197;28;20479;-92
2021/12/14 01:45:08;;;;;;;7.97;5.72;;;8.70;95.40;;;;;;2072644;28;20026;-92
2021/12/14 01:46:31;;;;;;;7.85;5.65;;;8.70;95.40;;;;;;2075385;28;20484;-92
2021/12/14 01:47:37;;;;;;;7.93;5.70;;;8.70;95.40;;;;;;2070918;28;20041;-91
2021/12/14 01:48:40;;;;;;;8.52;5.95;;;8.60;95.40;;;;;;2081989;28;20045;-91
2021/12/14 01:49:41;;;;;;;9.10;6.10;;;8.70;95.50;;;;;;2090367;28;20067;-92
2021/12/14 01:50:48;;;;;;;8.07;5.80;;;8.70;95.50;;;;;;2082590;28;20056;-92
2021/12/14 01:51:53;;;;;;;7.78;5.95;;;8.70;95.50;;;;;;2075480;28;20080;-91
2021/12/14 01:52:57;;;;;;;8.45;6.13;;;8.60;95.50;;;;;;2068235;28;20034;-91
2021/12/14 01:53:58;;;;;;;7.38;5.43;;;8.70;95.50;;;;;;2069780;28;20025;-91
2021/12/14 01:55:09;;;;;;;8.38;5.78;;;8.70;95.50;;;;;;2074016;28;20034;-92
2021/12/14 01:56:13;;;;;;;8.15;5.93;;;8.70;95.50;;;;;;2089437;28;20032;-91
2021/12/14 01:57:16;;;;;;;8.15;5.97;;;8.70;95.50;;;;;;2095797;28;20056;-92
2021/12/14 01:58:18;;;;;;;8.50;6.18;;;8.70;95.50;;;;;;2090225;28;20029;-92
2021/12/14 01:59:25;;;;;;;7.65;5.82;;;8.70;95.50;;;;;;2080621;28;20025;-91
2021/12/14 02:00:37;;;;;;;8.48;6.07;;;8.70;95.50;;;;;;2084648;28;20143;-92
2021/12/14 02:01:53;;;;;;;7.90;5.85;;;8.70;95.50;;;;;;2082473;28;20132;-91
2021/12/14 02:02:54;;;;;;;8.57;6.13;;;8.70;95.50;;;;;;2073903;28;20031;-92
2021/12/14 02:03:59;;;;;;;8.25;5.60;;;8.70;95.50;;;;;;2065627;28;20160;-91
2021/12/14 02:05:06;;;;;;;7.75;5.68;;;8.70;95.50;;;;;;2073751;28;20018;-91
2021/12/14 02:06:11;;;;;;;9.15;6.53;;;8.70;95.50;;;;;;2074762;28;20028;-91
2021/12/14 02:07:15;;;;;;;8.45;5.95;;;8.70;95.50;;;;;;2072658;28;20022;-92
2021/12/14 02:08:25;;;;;;;8.77;6.47;;;8.70;95.50;;;;;;2081533;28;20044;-92
2021/12/14 02:09:29;;;;;;;8.65;6.32;;;8.70;95.50;;;;;;2090663;28;20021;-93
2021/12/14 02:10:34;;;;;;;8.55;5.78;;;8.70;95.50;;;;;;2081502;28;20049;-92
2021/12/14 02:11:40;;;;;;;9.23;6.78;;;8.70;95.50;;;;;;2073756;28;20029;-92
2021/12/14 02:12:43;;;;;;;8.50;6.25;;;8.70;95.70;;;;;;2082560;28;20021;-91
2021/12/14 02:13:47;;;;;;;8.45;6.22;;;8.70;95.50;;;;;;2090805;28;20035;-92
2021/12/14 02:14:48;;;;;;;10.05;6.70;;;8.70;95.50;;;;;;2078145;28;20087;-92
2021/12/14 02:15:49;;;;;;;10.20;6.70;;;8.70;95.50;;;;;;2073646;28;20125;-91
2021/12/14 02:16:55;;;;;;;9.07;6.75;;;8.70;95.50;;;;;;2073308;28;20479;-92
2021/12/14 02:17:59;;;;;;;8.30;6.32;;;8.60;95.50;;;;;;2082215;28;20036;-91
2021/12/14 02:19:14;;;;;;;9.00;6.47;;;8.60;95.50;;;;;;2081236;28;20046;-91
2021/12/14 02:20:18;;;;;;;8.43;6.07;;;8.70;95.50;;;;;;2084051;28;20116;-92
2021/12/14 02:21:20;;;;;;;9.52;6.60;;;8.70;95.50;;;;;;2080959;28;20026;-92
2021/12/14 02:22:21;;;;;;;8.30;6.10;;;8.70;95.50;;;;;;2074180;28;20086;-92
2021/12/14 02:23:22;;;;;;;9.55;6.55;;;8.70;95.50;;;;;;2073803;28;20021;-92
2021/12/14 02:24:27;;;;;;;9.10;6.82;;;8.70;95.50;;;;;;2079895;28;20590;-92
2021/12/14 02:25:28;;;;;;;9.18;7.25;;;8.70;95.50;;;;;;2090016;28;20017;-92
2021/12/14 02:26:31;;;;;;;8.63;6.38;;;8.70;95.50;;;;;;2090440;28;20474;-92
2021/12/14 02:27:38;;;;;;;10.32;6.75;;;8.60;95.50;;;;;;2092390;28;20032;-92
2021/12/14 02:28:39;;;;;;;8.88;6.55;;;8.70;95.50;;;;;;2086829;28;20036;-92
2021/12/14 02:29:44;;;;;;;9.00;6.47;;;8.70;95.50;;;;;;2092151;28;20026;-92
2021/12/14 02:30:47;;;;;;;10.05;7.10;;;8.70;95.50;;;;;;2096925;28;20013;-90
2021/12/14 02:31:48;;;;;;;8.82;6.70;;;8.60;95.40;;;;;;2098864;28;20044;-89
2021/12/14 02:32:49;;;;;;;9.38;6.97;;;8.70;95.50;;;;;;2100133;28;20088;-85
2021/12/14 02:33:52;;;;;;;9.75;6.88;;;8.60;95.40;;;;;;2092130;28;20065;-86
2021/12/14 02:35:00;;;;;;;9.13;6.63;;;8.60;95.40;;;;;;2079733;28;20026;-91
2021/12/14 02:36:05;;;;;;;9.05;6.78;;;8.60;95.50;;;;;;2096444;28;20020;-91
2021/12/14 02:37:06;;;;;;;9.30;6.47;;;8.60;95.50;;;;;;2087807;28;20104;-90
2021/12/14 02:38:11;;;;;;;9.73;6.97;;;8.70;95.50;;;;;;2085625;28;20919;-92
2021/12/14 02:40:53;;;;;;;8.98;6.82;;;8.60;95.50;;;;;;2089566;28;20021;-92
2021/12/14 02:41:57;;;;;;;9.05;6.63;;;8.60;95.50;;;;;;2082382;28;20069;-92
2021/12/14 02:43:02;;;;;;;9.40;7.22;;;8.60;95.40;;;;;;2080911;28;20040;-92
2021/12/14 02:44:03;;;;;;;9.90;6.95;;;8.60;95.40;;;;;;2081290;28;20022;-92
2021/12/14 02:45:04;;;;;;;8.85;6.97;;;8.60;95.40;;;;;;2073534;28;20512;-92
2021/12/14 02:46:17;;;;;;;9.48;7.50;;;8.60;95.40;;;;;;2064931;28;20026;-92
2021/12/14 02:47:18;;;;;;;9.80;7.22;;;8.60;95.50;;;;;;2087515;28;20128;-92
2021/12/14 02:48:19;;;;;;;10.30;7.32;;;8.60;95.50;;;;;;2090514;28;20112;-92
2021/12/14 02:49:25;;;;;;;8.98;7.00;;;8.60;95.50;;;;;;2081770;28;20109;-92
2021/12/14 02:50:26;;;;;;;10.00;6.97;;;8.60;95.50;;;;;;2082369;28;20116;-92
2021/12/14 02:51:37;;;;;;;10.13;6.97;;;8.60;95.50;;;;;;2073420;28;20034;-92
2021/12/14 02:52:38;;;;;;;9.05;6.75;;;8.60;95.50;;;;;;2072925;28;20022;-92
2021/12/14 02:53:40;;;;;;;9.77;7.07;;;8.60;95.50;;;;;;2065741;28;20034;-93
2021/12/14 02:54:50;;;;;;;10.10;7.30;;;8.70;95.50;;;;;;2065797;28;20575;-93
2021/12/14 02:55:51;;;;;;;9.70;6.78;;;8.60;95.50;;;;;;2067833;28;20448;-92
2021/12/14 02:57:17;;;;;;;8.40;6.45;;;8.60;95.50;;;;;;2073604;28;20036;-93
2021/12/14 02:58:18;;;;;;;8.85;6.90;;;8.60;95.50;;;;;;2083125;28;20037;-92
2021/12/14 02:59:25;;;;;;;8.48;6.45;;;8.60;95.50;;;;;;2090565;28;20029;-92
2021/12/14 03:00:35;;;;;;;9.45;7.10;;;8.60;95.50;;;;;;2080362;28;20120;-92
2021/12/14 03:01:37;;;;;;;10.35;7.40;;;8.70;95.50;;;;;;2073937;28;20038;-92
2021/12/14 03:02:38;;;;;;;9.30;7.40;;;8.60;95.50;;;;;;2082018;28;20053;-92
2021/12/14 03:03:40;;;;;;;8.75;6.80;;;8.60;95.50;;;;;;2078264;28;20042;-92
2021/12/14 03:04:55;;;;;;;10.18;7.85;;;8.60;95.50;;;;;;2073743;28;20023;-93
2021/12/14 03:05:59;;;;;;;10.05;7.43;;;8.60;95.50;;;;;;2075263;28;20026;-93
2021/12/14 03:07:01;;;;;;;11.30;7.82;;;8.60;95.50;;;;;;2066482;28;20417;-92
2021/12/14 03:08:25;;;;;;;10.43;7.93;;;8.60;95.50;;;;;;2067610;28;20021;-90
2021/12/14 03:09:52;;;;;;;10.18;7.88;;;8.60;95.50;;;;;;2073804;28;20018;-92
2021/12/14 03:11:10;;;;;;;10.52;7.95;;;8.60;95.50;;;;;;2081558;28;20055;-91
2021/12/14 03:12:12;;;;;;;10.60;7.13;;;8.60;95.50;;;;;;2076841;28;20112;-91
2021/12/14 03:13:13;;;;;;;12.10;7.28;;;8.60;95.50;;;;;;2078667;28;20079;-92
2021/12/14 03:14:14;;;;;;;10.70;7.70;;;8.60;95.50;;;;;;2068912;28;20396;-92
2021/12/14 03:15:14;;;;;;;9.63;7.75;;;8.60;95.50;;;;;;2066717;28;20032;-91
2021/12/14 03:16:21;;;;;;;12.20;8.00;;;8.60;95.50;;;;;;2071884;28;20032;-92
2021/12/14 03:17:22;;;;;;;10.85;8.13;;;8.60;95.50;;;;;;2079368;28;20022;-92
2021/12/14 03:18:36;;;;;;;10.65;7.95;;;8.60;95.50;;;;;;2065844;28;20030;-92
2021/12/14 03:19:37;;;;;;;9.95;7.80;;;8.60;95.50;;;;;;2068892;28;20130;-92
2021/12/14 03:20:43;;;;;;;10.38;8.18;;;8.60;95.50;;;;;;2086801;28;20036;-92
2021/12/14 03:21:46;;;;;;;11.05;7.93;;;8.60;95.50;;;;;;2089557;28;20499;-92
2021/12/14 03:22:59;;;;;;;11.05;8.32;;;8.60;95.50;;;;;;2081683;28;20077;-92
2021/12/14 03:24:04;;;;;;;10.65;7.28;;;8.60;95.50;;;;;;2075483;28;20494;-92
2021/12/14 03:25:06;;;;;;;10.95;7.90;;;8.60;95.50;;;;;;2073881;28;20053;-92
2021/12/14 03:26:16;;;;;;;11.38;8.02;;;8.60;95.50;;;;;;2079985;28;20530;-92
2021/12/14 03:27:17;;;;;;;11.05;8.13;;;8.60;95.50;;;;;;2081670;28;20021;-92
2021/12/14 03:28:19;;;;;;;12.77;8.27;;;8.60;95.50;;;;;;2082126;28;20191;-91
2021/12/14 03:29:26;;;;;;;11.45;8.35;;;8.60;95.50;;;;;;2081729;28;20025;-92
2021/12/14 03:30:43;;;;;;;10.98;8.13;;;8.60;95.50;;;;;;2081919;28;20036;-92
2021/12/14 03:31:46;;;;;;;11.02;8.18;;;8.60;95.50;;;;;;2075436;28;20033;-92
2021/12/14 03:32:47;;;;;;;10.93;7.93;;;8.60;95.80;;;;;;2073008;28;20034;-92
2021/12/14 03:34:13;;;;;;;11.15;8.60;;;8.60;95.50;;;;;;2072385;28;20026;-92
2021/12/14 03:35:16;;;;;;;9.98;7.57;;;8.60;95.50;;;;;;2072308;28;20026;-92
2021/12/14 03:36:23;;;;;;;10.70;8.07;;;8.60;95.50;;;;;;2066671;28;20464;-92
2021/12/14 03:37:24;;;;;;;9.95;7.40;;;8.60;95.50;;;;;;2070229;28;20026;-92
2021/12/14 03:38:27;;;;;;;10.75;7.65;;;8.60;95.60;;;;;;2076648;28;20555;-93
2021/12/14 03:39:58;;;;;;;12.05;8.63;;;8.60;95.60;;;;;;2072927;28;20034;-92
2021/12/14 03:41:06;;;;;;;11.10;8.25;;;8.60;95.50;;;;;;2075325;28;20037;-93
2021/12/14 03:42:22;;;;;;;11.18;8.30;;;8.60;95.50;;;;;;2074317;28;20101;-92
2021/12/14 03:43:24;;;;;;;10.52;8.00;;;8.60;95.60;;;;;;2074726;28;20038;-92
2021/12/14 03:44:32;;;;;;;10.68;7.90;;;8.60;95.60;;;;;;2073134;28;20059;-92
2021/12/14 03:45:32;;;;;;;10.85;8.00;;;8.60;95.60;;;;;;2074236;28;20113;-91
2021/12/14 03:46:41;;;;;;;11.70;8.35;;;8.50;95.50;;;;;;2080904;28;20404;-92
2021/12/14 03:47:49;;;;;;;11.48;8.13;;;8.60;95.60;;;;;;2068027;28;20078;-92
2021/12/14 03:48:50;;;;;;;10.77;8.00;;;8.60;95.60;;;;;;2073802;28;20399;-92
2021/12/14 03:49:57;;;;;;;11.10;8.27;;;8.60;95.60;;;;;;2065367;28;20130;-93
2021/12/14 03:50:59;;;;;;;12.68;8.40;;;8.60;95.60;;;;;;2059638;28;20062;-92
2021/12/14 03:52:01;;;;;;;11.77;8.40;;;8.60;95.60;;;;;;2064479;28;20027;-93
2021/12/14 03:53:04;;;;;;;11.93;8.38;;;8.60;95.60;;;;;;2058336;28;20409;-92
2021/12/14 03:54:05;;;;;;;11.00;7.85;;;8.60;95.60;;;;;;2064231;28;20125;-92
2021/12/14 03:55:17;;;;;;;11.95;8.60;;;8.50;95.60;;;;;;2066866;28;20022;-91
2021/12/14 03:56:18;;;;;;;11.88;8.55;;;8.60;95.60;;;;;;2075034;28;20105;-92
2021/12/14 03:57:19;;;;;;;11.38;8.52;;;8.60;95.60;;;;;;2084299;28;20057;-91
2021/12/14 03:58:24;;;;;;;12.88;8.48;;;8.60;95.60;;;;;;2072936;28;20060;-92
2021/12/14 03:59:28;;;;;;;10.85;8.13;;;8.60;95.60;;;;;;2065289;28;20137;-92
2021/12/14 04:01:04;;;;;;;11.35;8.00;;;8.60;95.60;;;;;;2070334;28;20061;-92
2021/12/14 04:02:08;;;;;;;10.38;7.80;;;8.60;95.60;;;;;;2073058;28;20045;-91
2021/12/14 04:03:11;;;;;;;10.13;7.53;;;8.60;95.60;;;;;;2065259;28;20057;-92
2021/12/14 04:04:19;;;;;;;11.25;8.02;;;8.60;95.60;;;;;;2079106;28;20439;-92
2021/12/14 04:05:20;;;;;;;12.48;8.38;;;8.60;95.60;;;;;;2083976;28;20048;-91
2021/12/14 04:06:22;;;;;;;10.95;8.50;;;8.60;95.60;;;;;;2066010;28;20624;-92
2021/12/14 04:07:23;;;;;;;11.77;8.55;;;8.60;95.60;;;;;;2074410;28;20041;-92
2021/12/14 04:08:25;;;;;;;11.43;8.65;;;8.50;95.60;;;;;;2073442;28;20057;-91
2021/12/14 04:09:29;;;;;;;12.38;8.50;;;8.50;95.60;;;;;;2064388;28;20084;-92
2021/12/14 04:10:32;;;;;;;11.90;8.98;;;8.50;95.60;;;;;;2064982;28;20031;-92
2021/12/14 04:11:33;;;;;;;12.13;8.60;;;8.50;95.60;;;;;;2072041;28;20042;-92
2021/12/14 04:12:36;;;;;;;11.40;8.88;;;8.50;95.90;;;;;;2066232;28;20412;-92
2021/12/14 04:13:46;;;;;;;12.70;8.35;;;8.50;95.60;;;;;;2073047;28;20026;-91
2021/12/14 04:14:54;;;;;;;12.93;9.40;;;8.50;95.60;;;;;;2082174;28;20054;-92
2021/12/14 04:15:56;;;;;;;12.38;8.52;;;8.50;95.60;;;;;;2083286;28;20026;-91
2021/12/14 04:16:59;;;;;;;12.15;9.10;;;8.50;95.60;;;;;;2073392;28;20084;-91
2021/12/14 04:18:00;;;;;;;11.68;8.40;;;8.50;95.60;;;;;;2078844;28;20033;-89
2021/12/14 04:19:10;;;;;;;11.70;8.43;;;8.50;95.70;;;;;;2088946;28;20026;-90
2021/12/14 04:20:26;;;;;;;11.48;8.63;;;8.50;95.90;;;;;;2084495;28;20056;-85
2021/12/14 04:21:27;;;;;;;12.68;8.55;;;8.50;95.60;;;;;;2085372;28;20006;-87
2021/12/14 04:22:32;;;;;;;11.90;8.70;;;8.50;95.60;;;;;;2083920;28;20006;-87
2021/12/14 04:23:39;;;;;;;10.80;8.10;;;8.50;95.60;;;;;;2085856;28;20042;-90
2021/12/14 04:24:41;;;;;;;11.50;8.13;;;8.50;95.60;;;;;;2097113;28;20081;-90
2021/12/14 04:25:43;;;;;;;11.77;8.75;;;8.50;95.60;;;;;;2083110;28;20084;-91
2021/12/14 04:26:46;;;;;;;10.82;8.10;;;8.50;95.60;;;;;;2067628;28;20038;-91
2021/12/14 04:27:48;;;;;;;12.25;8.80;;;8.50;95.60;;;;;;2072984;28;20030;-91
2021/12/14 04:28:53;;;;;;;11.30;8.07;;;8.50;95.60;;;;;;2070510;28;20646;-91
2021/12/14 04:29:54;;;;;;;11.77;8.70;;;8.50;95.60;;;;;;2067886;28;20054;-92
2021/12/14 04:30:55;;;;;;;11.48;8.18;;;8.50;95.60;;;;;;2083071;28;20022;-91
2021/12/14 04:31:56;;;;;;;12.00;8.20;;;8.50;95.60;;;;;;2089981;28;20037;-92
2021/12/14 04:33:00;;;;;;;11.57;8.25;;;8.50;95.60;;;;;;2074730;28;20026;-91
2021/12/14 04:34:02;;;;;;;12.02;9.20;;;8.50;95.70;;;;;;2074934;28;20029;-90
2021/12/14 04:35:06;;;;;;;13.05;8.90;;;8.50;95.70;;;;;;2074740;28;20032;-91
2021/12/14 04:36:09;;;;;;;11.80;8.13;;;8.50;95.70;;;;;;2083210;28;20515;-91
2021/12/14 04:37:14;;;;;;;11.32;8.35;;;8.50;95.70;;;;;;2091200;28;20017;-92
2021/12/14 04:38:24;;;;;;;11.07;8.45;;;8.50;95.70;;;;;;2074991;28;20041;-91
2021/12/14 04:52:15;;;;;;;;;;;8.40;95.60;;;;;;2090395;28;20029;-91
2021/12/14 04:53:22;;;;;;;10.73;7.00;;;8.50;95.60;;;;;;2092600;28;19912;-91
2021/12/14 04:54:22;;;;;;;9.95;6.88;;;8.40;95.60;;;;;;2089767;28;20059;-91
2021/12/14 04:55:23;;;;;;;10.75;7.40;;;8.40;95.60;;;;;;2086649;28;20029;-91
2021/12/14 04:56:45;;;;;;;11.15;7.45;;;8.40;95.60;;;;;;2083280;28;20011;-91
2021/12/14 04:57:47;;;;;;;10.18;7.13;;;8.40;95.60;;;;;;2059884;28;20065;-90
2021/12/14 04:59:15;;;;;;;10.00;7.50;;;8.40;95.70;;;;;;2074074;28;20030;-90
2021/12/14 05:00:33;;;;;;;10.98;7.85;;;8.40;95.70;;;;;;2085349;28;20028;-90
2021/12/14 05:01:38;;;;;;;10.23;6.82;;;8.40;95.70;;;;;;2091523;28;20376;-92
2021/12/14 05:02:39;;;;;;;10.57;6.88;;;8.40;95.70;;;;;;2083187;28;20060;-92
2021/12/14 05:03:50;;;;;;;10.30;6.97;;;8.40;95.70;;;;;;2078791;28;20022;-92
2021/12/14 05:04:54;;;;;;;9.60;7.10;;;8.40;95.70;;;;;;2084047;28;20029;-92
2021/12/14 05:06:09;;;;;;;10.60;7.90;;;8.40;95.70;;;;;;2091471;28;20471;-92
2021/12/14 05:09:26;;;;;;;11.45;7.57;;;8.40;95.70;;;;;;2063438;28;20034;-91
2021/12/14 05:10:26;;;;;;;10.63;7.35;;;8.40;95.70;;;;;;2058169;28;20023;-91
2021/12/14 05:11:28;;;;;;;10.23;7.05;;;8.40;95.70;;;;;;2061093;28;20137;-91
2021/12/14 05:12:32;;;;;;;10.20;7.80;;;8.40;95.60;;;;;;2062579;28;20038;-91
2021/12/14 05:13:43;;;;;;;10.43;7.60;;;8.40;95.60;;;;;;2051058;28;20494;-91
2021/12/14 05:14:47;;;;;;;11.00;7.60;;;8.40;95.70;;;;;;2078360;28;20029;-91
2021/12/14 05:15:47;;;;;;;10.32;7.07;;;8.40;95.90;;;;;;2082577;28;20018;-91
2021/12/14 05:16:51;;;;;;;11.52;8.05;;;8.40;95.70;;;;;;2074176;28;20623;-91
2021/12/14 05:17:52;;;;;;;10.63;7.60;;;8.40;95.70;;;;;;2083045;28;20120;-91
2021/12/14 05:19:00;;;;;;;10.52;7.72;;;8.40;95.70;;;;;;2091011;28;20048;-90
2021/12/14 05:20:03;;;;;;;9.90;7.53;;;8.40;95.70;;;;;;2086844;28;20029;-91
2021/12/14 05:21:04;;;;;;;11.57;7.80;;;8.40;95.70;;;;;;2074487;28;20022;-91
2021/12/14 05:22:11;;;;;;;11.80;8.50;;;8.40;95.70;;;;;;2066650;28;20029;-91
2021/12/14 05:23:22;;;;;;;10.95;7.53;;;8.40;95.70;;;;;;2072502;28;20437;-91
2021/12/14 05:24:24;;;;;;;10.40;7.32;;;8.40;95.70;;;;;;2081014;28;20029;-91
2021/12/14 05:25:27;;;;;;;11.25;8.02;;;8.40;95.70;;;;;;2082005;28;20029;-92
2021/12/14 05:26:28;;;;;;;10.80;7.57;;;8.40;95.70;;;;;;2065632;28;20181;-92
2021/12/14 05:27:50;;;;;;;11.57;8.13;;;8.40;95.70;;;;;;2074458;28;20038;-91
2021/12/14 05:28:52;;;;;;;10.75;7.85;;;8.40;95.70;;;;;;2074699;28;20030;-91
2021/12/14 05:29:54;;;;;;;10.52;7.57;;;8.40;95.70;;;;;;2074424;28;20033;-92
2021/12/14 05:30:58;;;;;;;11.50;8.02;;;8.40;95.70;;;;;;2086423;28;20017;-90
2021/12/14 05:32:01;;;;;;;11.52;8.32;;;8.40;95.70;;;;;;2090615;28;20220;-91
2021/12/14 05:33:08;;;;;;;9.90;7.40;;;8.40;95.70;;;;;;2089523;28;20025;-91
2021/12/14 05:34:09;;;;;;;10.63;7.53;;;8.40;95.70;;;;;;2080911;28;20026;-91
2021/12/14 05:35:13;;;;;;;9.90;7.18;;;8.40;95.70;;;;;;2079756;28;20053;-91
2021/12/14 05:36:17;;;;;;;10.85;7.50;;;8.40;95.70;;;;;;2078006;28;20508;-91
2021/12/14 05:37:26;;;;;;;9.23;6.63;;;8.40;95.70;;;;;;2081644;28;20018;-91
2021/12/14 05:40:04;;;;;;;9.80;6.60;;;8.40;95.70;;;;;;2059762;28;20110;-91
2021/12/14 05:43:52;;;;;;;9.13;6.78;;;8.30;95.60;;;;;;2085244;28;20036;-91
2021/12/14 05:44:53;;;;;;;9.35;6.40;;;8.40;95.70;;;;;;2081429;28;20025;-91
2021/12/14 05:45:57;;;;;;;9.15;6.47;;;8.30;95.60;;;;;;2069168;28;20022;-91
2021/12/14 05:47:02;;;;;;;10.63;7.20;;;8.40;95.60;;;;;;2083705;28;20057;-91
2021/12/14 05:48:03;;;;;;;9.82;6.60;;;8.40;95.70;;;;;;2082798;28;20446;-91
2021/12/14 05:49:08;;;;;;;9.60;6.78;;;8.30;95.60;;;;;;2073581;28;20068;-91
2021/12/14 05:50:14;;;;;;;9.40;6.88;;;8.30;95.60;;;;;;2078679;28;20048;-91
2021/12/14 05:51:16;;;;;;;10.52;7.00;;;8.30;95.60;;;;;;2082314;28;20060;-91
2021/12/14 05:52:21;;;;;;;10.43;7.35;;;8.30;95.60;;;;;;2074610;28;20026;-91
2021/12/14 05:53:35;;;;;;;9.88;7.30;;;8.30;95.60;;;;;;2082788;28;20033;-91
2021/12/14 05:54:36;;;;;;;10.82;7.60;;;8.30;95.60;;;;;;2084340;28;20034;-89
2021/12/14 05:55:40;;;;;;;10.32;7.10;;;8.30;95.60;;;;;;2091416;28;20022;-91
2021/12/14 05:56:40;;;;;;;10.57;7.20;;;8.30;95.60;;;;;;2098985;28;20013;-91
2021/12/14 05:57:41;;;;;;;10.23;6.65;;;8.30;95.60;;;;;;2099073;28;20100;-93
2021/12/14 05:58:42;;;;;;;11.43;7.22;;;8.30;95.60;;;;;;2091248;28;20036;-91
2021/12/14 05:59:43;;;;;;;9.93;6.97;;;8.30;95.60;;;;;;2083422;28;20060;-93
2021/12/14 06:00:49;;;;;;;10.82;6.93;;;8.30;95.60;;;;;;2082934;28;20026;-91
2021/12/14 06:01:51;;;;;;;9.70;6.13;;;8.30;95.60;;;;;;2091181;28;20028;-91
2021/12/14 06:02:52;;;;;;;10.30;6.70;;;8.30;95.60;;;;;;2086388;28;20061;-91
2021/12/14 06:03:56;;;;;;;9.25;6.93;;;8.30;95.60;;;;;;2089931;28;20021;-90
2021/12/14 06:04:56;;;;;;;9.73;6.72;;;8.30;95.60;;;;;;2092873;28;20021;-91
2021/12/14 06:05:58;;;;;;;9.10;6.30;;;8.30;95.60;;;;;;2090959;28;20105;-86
2021/12/14 06:06:59;;;;;;;9.63;6.40;;;8.30;95.60;;;;;;2090650;28;20025;-88
2021/12/14 06:08:03;;;;;;;9.45;6.35;;;8.30;95.60;;;;;;2084037;28;20026;-89
2021/12/14 06:09:13;;;;;;;9.35;6.47;;;8.30;95.60;;;;;;2092224;28;20061;-89
2021/12/14 06:10:17;;;;;;;9.80;6.30;;;8.40;95.70;;;;;;2098328;28;20006;-88
2021/12/14 06:11:23;;;;;;;9.70;6.20;;;8.30;95.60;;;;;;2099709;28;20011;-87